Latest Weather Observations for Tibooburra Airport

IDN60801

Issued at 8:33 pm EST Wednesday 29 June 2016 (issued every 30 minutes, with the page automatically refreshed every 10 minutes)

About weather observations | Map of weather stations | Latest weather observations for NSW | Other Formats
Station Details ID: 046126 Name: TIBOOBURRA AIRPORT Lat: -29.44 Lon: 142.06 Height: 176.4 m
Data from the previous 72 hours. | See also: Recent months at Tibooburra Airport
Date/Time
EST
Temp
°C
App
Temp
°C
Dew
Point
°C
Rel
Hum
%
Delta-T
°C
Wind Press
QNH
hPa
Press
MSL
hPa
Rain since
9am
mm
Dir  Spd
km/h
Gust
km/h
Spd
kts
Gust
kts
29/08:30pm 8.9 4.9 5.1 77 1.7 NE 15 17 8 9 1023.7 1023.7 0.0
29/08:00pm 9.2 5.7 5.4 77 1.7 NE 13 15 7 8 1023.5 1023.5 0.0
29/07:30pm 9.7 5.8 5.5 75 1.9 NE 15 17 8 9 1023.7 1023.7 0.0
29/07:00pm 10.0 6.4 5.2 72 2.2 NE 13 15 7 8 1023.8 1023.8 0.0
29/06:30pm 10.7 7.2 5.3 69 2.5 NE 13 15 7 8 1023.8 1023.8 0.0
29/06:00pm 11.6 7.7 5.3 65 2.9 NE 15 19 8 10 1023.5 1023.5 0.0
29/05:30pm 13.0 8.2 4.7 57 3.9 NE 19 24 10 13 1023.5 1023.5 0.0
29/05:00pm 14.0 9.1 4.3 52 4.5 NNE 19 24 10 13 1023.9 1023.9 0.0
29/04:30pm 14.3 9.3 3.7 49 4.9 NNE 19 26 10 14 1024.2 1024.2 0.0
29/04:00pm 14.6 9.6 3.7 48 5.0 NNE 19 26 10 14 1024.3 1024.3 0.0
29/03:30pm 14.7 9.5 3.5 47 5.1 NNE 20 26 11 14 1024.4 1024.4 0.0
29/03:00pm 14.9 9.9 3.7 47 5.1 NNE 19 26 10 14 1024.5 1024.5 0.0
29/02:30pm 14.9 10.5 4.6 50 4.8 NNE 17 24 9 13 1024.9 1024.9 0.0
29/02:00pm 14.6 9.7 4.0 49 4.9 NNE 19 26 10 14 1025.3 1025.3 0.0
29/01:30pm 14.2 8.9 3.1 47 5.0 NNE 20 30 11 16 1025.7 1025.7 0.0
29/01:00pm 14.5 9.4 4.2 50 4.8 NNE 20 28 11 15 1026.3 1026.4 0.0
29/12:30pm 14.3 9.2 4.3 51 4.6 NNE 20 32 11 17 1027.0 1027.1 0.0
29/12:00pm 13.8 8.7 3.9 51 4.5 NNE 20 28 11 15 1027.8 1027.9 0.0
29/11:30am 13.0 8.4 5.4 60 3.6 N 19 26 10 14 1028.5 1028.5 0.0
29/11:00am 12.3 8.5 5.7 64 3.1 NNE 15 22 8 12 1029.0 1029.0 0.0
29/10:30am 11.4 7.2 5.7 68 2.7 N 17 20 9 11 1029.3 1029.3 0.0
29/10:00am 10.5 7.9 6.3 75 2.0 NNE 9 13 5 7 1029.4 1029.4 0.0
29/09:30am 9.5 7.0 6.4 81 1.5 NNE 9 11 5 6 1029.1 1029.1 0.0
29/09:00am 8.6 6.5 6.6 87 0.9 NE 7 11 4 6 1029.0 1029.0 0.0
29/08:30am 7.7 5.5 6.2 90 0.7 NNE 7 9 4 5 1028.9 1028.9 0.0
29/08:00am 6.1 3.7 5.4 95 0.3 NNE 7 9 4 5 1028.8 1028.8 0.0
29/07:30am 5.6 3.1 5.0 96 0.3 NE 7 7 4 4 1028.5 1028.5 0.0
29/07:00am 5.4 4.2 4.8 96 0.3 CALM 0 0 0 0 1028.2 1028.2 0.0
29/06:30am 5.5 4.3 4.8 95 0.3 CALM 0 0 0 0 1028.0 1028.1 0.0
29/06:00am 5.9 4.8 5.2 95 0.3 CALM 0 0 0 0 1027.6 1027.7 0.0
29/05:30am 5.7 4.6 5.0 95 0.3 CALM 0 0 0 0 1027.4 1027.5 0.0
29/05:00am 5.6 4.4 4.6 93 0.4 CALM 0 0 0 0 1027.2 1027.3 0.0
29/04:30am 6.2 5.1 5.3 94 0.4 CALM 0 0 0 0 1027.1 1027.2 0.0
29/04:00am 6.3 5.2 5.1 92 0.5 CALM 0 0 0 0 1027.2 1027.3 0.0
29/03:30am 6.5 5.3 4.8 89 0.7 CALM 0 0 0 0 1027.3 1027.4 0.0
29/03:00am 7.0 6.0 5.8 92 0.5 CALM 0 0 0 0 1027.4 1027.5 0.0
29/02:30am 6.5 5.4 5.1 91 0.6 CALM 0 0 0 0 1027.5 1027.6 0.0
29/02:00am 7.1 5.8 5.9 92 0.5 E 2 6 1 3 1027.5 1027.6 0.0
29/01:30am 6.6 5.1 5.2 91 0.6 SSE 2 7 1 4 1027.6 1027.7 0.0
29/01:00am 7.7 6.3 5.3 85 1.1 NE 2 6 1 3 1027.8 1027.9 0.0
29/12:30am 8.8 6.2 6.1 83 1.2 N 9 11 5 6 1028.2 1028.2 0.0
29/12:00am 8.9 5.9 6.2 83 1.2 N 11 13 6 7 1028.6 1028.6 0.0
 
Date/Time
EST
Temp
°C
App
Temp
°C
Dew
Point
°C
Rel
Hum
%
Delta-T
°C
Wind Press
QNH
hPa
Press
MSL
hPa
Rain since
9am
mm
Dir  Spd
km/h
Gust
km/h
Spd
kts
Gust
kts
28/11:30pm 9.2 6.3 6.5 83 1.3 N 11 11 6 6 1028.9 1028.9 0.0
28/11:00pm 9.4 6.5 6.5 82 1.3 N 11 13 6 7 1029.0 1029.0 0.0
28/10:30pm 9.6 6.7 6.7 82 1.4 N 11 15 6 8 1028.9 1028.9 0.0
28/10:00pm 9.4 6.6 6.8 84 1.2 NE 11 13 6 7 1028.8 1028.8 0.0
28/09:30pm 9.4 6.5 6.7 83 1.3 NE 11 11 6 6 1028.7 1028.7 0.0
28/09:00pm 9.7 6.8 6.4 80 1.5 E 11 13 6 7 1028.9 1028.9 0.0
28/08:30pm 10.2 7.7 6.4 77 1.8 ENE 9 11 5 6 1029.0 1029.0 0.0
28/08:00pm 10.6 8.1 6.4 75 2.0 E 9 11 5 6 1028.8 1028.8 0.0
28/07:30pm 11.2 8.8 6.9 75 2.1 E 9 11 5 6 1028.7 1028.7 0.0
28/07:00pm 11.8 9.7 6.5 70 2.5 E 7 7 4 4 1028.9 1028.9 0.0
28/06:30pm 12.9 10.8 6.0 63 3.3 ESE 6 9 3 5 1028.7 1028.7 0.0
28/06:00pm 13.6 10.9 5.7 59 3.7 SE 9 11 5 6 1028.5 1028.5 0.0
28/05:30pm 14.5 10.9 5.0 53 4.5 SSE 13 17 7 9 1028.3 1028.3 0.0
28/05:00pm 15.3 12.4 4.7 49 5.0 SSE 9 17 5 9 1028.0 1028.1 0.0
28/04:30pm 15.4 13.7 4.2 47 5.2 WSW 2 9 1 5 1027.9 1028.0 0.0
28/04:00pm 14.9 12.8 5.7 54 4.4 S 6 7 3 4 1027.8 1027.9 0.0
28/03:30pm 14.9 12.2 5.4 53 4.5 SSE 9 11 5 6 1027.7 1027.8 0.0
28/03:00pm 15.2 13.2 4.6 49 5.0 SW 4 13 2 7 1027.7 1027.8 0.0
28/02:30pm 15.9 13.9 4.6 47 5.4 WNW 4 9 2 5 1027.7 1027.8 0.0
28/02:00pm 14.8 13.6 4.8 51 4.7 CALM 0 6 0 3 1028.0 1028.1 0.0
28/01:30pm 16.1 14.3 5.4 49 5.2 WNW 4 9 2 5 1028.4 1028.4 0.0
28/01:00pm 14.4 12.9 5.0 53 4.4 NNW 2 9 1 5 1028.6 1028.6 0.0
28/12:30pm 15.5 14.1 5.7 52 4.7 NNE 2 6 1 3 1028.9 1028.9 0.0
28/12:00pm 14.3 11.8 6.4 59 3.8 ESE 9 11 5 6 1029.1 1029.1 0.0
28/11:30am 14.1 11.8 7.6 65 3.2 S 9 15 5 8 1029.1 1029.1 0.0
28/11:00am 13.4 10.9 8.0 70 2.7 SE 11 13 6 7 1029.2 1029.2 0.0
28/10:30am 12.7 10.2 8.0 73 2.3 S 11 15 6 8 1029.3 1029.3 0.0
28/10:00am 11.9 9.4 8.0 77 1.9 SSW 11 15 6 8 1029.2 1029.2 0.0
28/09:30am 10.9 8.4 8.0 82 1.4 SW 11 15 6 8 1029.0 1029.0 0.0
28/09:00am 9.5 7.2 7.6 88 0.9 SSW 9 13 5 7 1028.6 1028.6 0.0
28/08:30am 8.7 6.3 7.2 90 0.7 WSW 9 13 5 7 1028.2 1028.2 0.0
28/08:00am 7.4 4.9 6.7 95 0.3 WSW 9 11 5 6 1027.7 1027.8 0.0
28/07:30am 7.1 4.2 6.4 95 0.3 W 11 11 6 6 1027.3 1027.4 0.0
28/07:00am 7.6 4.0 6.7 94 0.4 W 15 17 8 9 1026.9 1027.0 0.0
28/06:30am 7.6 4.7 6.7 94 0.4 W 11 13 6 7 1026.7 1026.8 0.0
28/06:00am 8.0 4.8 6.8 92 0.6 W 13 15 7 8 1026.5 1026.6 0.0
28/05:30am 8.4 5.3 7.2 92 0.6 W 13 13 7 7 1026.0 1026.0 0.0
28/05:00am 8.2 5.8 7.0 92 0.6 W 9 11 5 6 1025.8 1025.8 0.0
28/04:30am 8.8 6.5 7.4 91 0.7 W 9 11 5 6 1025.7 1025.7 0.0
28/04:00am 9.6 6.6 7.7 88 0.9 WNW 13 13 7 7 1025.7 1025.7 0.0
28/03:30am 10.1 8.4 8.2 88 0.9 WSW 7 9 4 5 1025.8 1025.8 0.0
28/03:00am 10.5 8.4 8.4 87 1.0 W 9 11 5 6 1025.8 1025.8 0.0
28/02:30am 10.6 8.1 8.2 85 1.2 WNW 11 11 6 6 1025.9 1025.9 0.0
28/02:00am 10.4 8.8 8.8 90 0.8 W 7 9 4 5 1026.1 1026.1 0.0
28/01:30am 10.5 8.8 8.4 87 1.0 WNW 7 9 4 5 1025.9 1025.9 0.0
28/01:00am 10.6 9.2 8.9 89 0.8 WNW 6 7 3 4 1025.9 1025.9 0.0
28/12:30am 10.8 9.1 8.2 84 1.3 NNE 7 11 4 6 1025.9 1025.9 0.0
28/12:00am 11.0 10.2 8.2 83 1.4 NW 2 6 1 3 1026.0 1026.0 0.0
 
Date/Time
EST
Temp
°C
App
Temp
°C
Dew
Point
°C
Rel
Hum
%
Delta-T
°C
Wind Press
QNH
hPa
Press
MSL
hPa
Rain since
9am
mm
Dir  Spd
km/h
Gust
km/h
Spd
kts
Gust
kts
27/11:30pm 10.8 10.5 8.6 86 1.1 CALM 0 0 0 0 1026.0 1026.0 0.0
27/11:00pm 11.1 10.7 8.3 83 1.4 CALM 0 0 0 0 1026.0 1026.0 0.0
27/10:30pm 11.4 9.9 8.3 81 1.5 W 6 9 3 5 1025.9 1025.9 0.0
27/10:00pm 11.5 9.4 8.2 80 1.6 WNW 9 11 5 6 1025.8 1025.8 0.0
27/09:30pm 11.7 9.8 7.4 75 2.1 WNW 7 11 4 6 1025.7 1025.7 0.0
27/09:00pm 11.8 9.1 7.5 75 2.1 W 11 13 6 7 1025.6 1025.6 0.0
27/08:30pm 11.6 9.8 8.1 79 1.7 W 7 9 4 5 1025.3 1025.3 0.0
27/08:00pm 11.5 11.1 8.2 80 1.6 CALM 0 0 0 0 1025.0 1025.0 0.0
27/07:30pm 11.9 11.3 7.6 75 2.1 CALM 0 0 0 0 1024.6 1024.6 0.0
27/07:00pm 11.9 10.2 7.4 74 2.2 SSW 6 7 3 4 1024.3 1024.3 0.0
27/06:30pm 12.1 10.3 7.2 72 2.4 SSW 6 7 3 4 1023.9 1023.9 0.0
27/06:00pm 12.4 9.9 6.5 67 2.8 S 9 11 5 6 1023.7 1023.7 0.0
27/05:30pm 12.8 10.0 5.0 59 3.6 SSW 9 15 5 8 1023.4 1023.4 0.0
27/05:00pm 13.3 9.3 5.0 57 3.9 SW 15 20 8 11 1023.1 1023.1 0.0
27/04:30pm 13.4 9.4 5.1 57 3.9 SW 15 20 8 11 1022.8 1022.8 0.0
27/04:00pm 13.9 9.5 4.5 53 4.4 SSW 17 26 9 14 1022.5 1022.5 0.0
27/03:30pm 13.8 10.8 6.2 60 3.7 SW 11 20 6 11 1022.4 1022.4 0.0
27/03:00pm 13.4 9.0 4.6 55 4.1 WSW 17 24 9 13 1022.4 1022.4 0.0
27/02:30pm 13.3 9.4 5.2 58 3.8 SW 15 20 8 11 1022.4 1022.4 0.0
27/02:00pm 12.6 8.7 5.3 61 3.4 SW 15 22 8 12 1022.5 1022.5 0.0
27/01:30pm 12.3 8.8 5.5 63 3.2 SW 13 22 7 12 1022.6 1022.6 0.0
27/01:00pm 12.1 8.8 6.4 68 2.7 SW 13 26 7 14 1022.8 1022.8 0.0
27/12:30pm 11.4 8.2 5.3 66 2.8 WSW 11 17 6 9 1023.2 1023.2 0.0
27/12:00pm 11.0 7.6 5.7 70 2.5 SW 13 17 7 9 1023.5 1023.5 0.0
27/11:30am 10.6 7.7 6.6 76 1.9 SW 11 19 6 10 1023.7 1023.7 0.0
27/11:00am 10.0 6.4 6.9 81 1.5 WSW 15 19 8 10 1023.8 1023.8 0.0
27/10:30am 9.2 5.5 6.1 81 1.4 WSW 15 19 8 10 1023.7 1023.7 0.0
27/10:00am 8.6 5.3 6.6 87 0.9 WSW 13 15 7 8 1023.6 1023.6 0.0
27/09:30am 7.4 4.4 6.2 92 0.5 WSW 11 13 6 7 1023.1 1023.1 0.0
27/09:00am 6.5 3.5 5.9 96 0.3 SW 11 13 6 7 1022.8 1022.8 3.6
27/08:30am 5.4 3.0 5.3 99 0.0 SW 7 11 4 6 1022.5 1022.5 3.6
27/08:00am 4.5 1.6 4.4 99 0.0 W 9 11 5 6 1022.3 1022.3 3.6
27/07:30am 4.4 1.4 4.3 99 0.0 WSW 9 11 5 6 1021.8 1021.9 3.6
27/07:00am 4.8 1.5 4.7 99 0.0 W 11 13 6 7 1021.5 1021.6 3.6
27/06:30am 5.1 1.9 5.0 99 0.0 W 11 13 6 7 1020.9 1020.9 3.6
27/06:00am 5.3 2.5 5.2 99 0.0 WSW 9 11 5 6 1020.5 1020.5 3.6
27/05:30am 5.6 2.9 5.5 99 0.0 WSW 9 13 5 7 1020.1 1020.1 3.6
27/05:00am 5.9 2.8 5.6 98 0.1 WSW 11 13 6 7 1019.8 1019.8 3.6
27/04:30am 6.4 3.0 6.0 97 0.2 WSW 13 15 7 8 1019.7 1019.7 3.6
27/04:00am 6.7 2.9 6.0 95 0.3 SW 15 20 8 11 1019.7 1019.7 3.6
27/03:30am 7.1 3.7 5.9 92 0.5 SW 13 19 7 10 1019.5 1019.5 3.6
27/03:00am 7.4 4.1 6.2 92 0.5 WSW 13 15 7 8 1019.5 1019.5 3.6
27/02:30am 7.4 4.0 6.0 91 0.6 WSW 13 19 7 10 1019.5 1019.5 3.6
27/02:00am 7.4 4.4 5.9 90 0.7 WSW 11 15 6 8 1019.4 1019.4 3.6
27/01:30am 7.5 5.7 7.1 97 0.2 WSW 6 7 3 4 1019.3 1019.3 3.6
27/01:00am 7.5 6.4 6.8 95 0.3 S 2 9 1 5 1019.4 1019.4 3.6
27/12:30am 7.4 5.9 7.0 97 0.2 S 4 9 2 5 1019.5 1019.5 3.6
27/12:00am 7.4 6.7 7.0 97 0.2 CALM 0 0 0 0 1019.4 1019.4 3.6
 
Date/Time
EST
Temp
°C
App
Temp
°C
Dew
Point
°C
Rel
Hum
%
Delta-T
°C
Wind Press
QNH
hPa
Press
MSL
hPa
Rain since
9am
mm
Dir  Spd
km/h
Gust
km/h
Spd
kts
Gust
kts
26/11:30pm 7.2 6.5 6.8 97 0.2 CALM 0 0 0 0 1019.2 1019.2 3.6
26/11:00pm 7.2 6.1 6.9 98 0.1 ESE 2 6 1 3 1019.0 1019.0 3.6
26/10:30pm 7.4 5.4 7.0 97 0.2 ENE 7 9 4 5 1018.8 1018.8 3.6
26/10:00pm 7.6 5.6 7.2 97 0.2 ENE 7 9 4 5 1018.8 1018.8 3.6
26/09:30pm 7.7 6.6 7.1 96 0.3 SSE 2 9 1 5 1018.9 1018.9 3.6
26/09:00pm 7.7 7.1 7.3 97 0.2 CALM 0 0 0 0 1018.8 1018.8 3.6

Other Formats:

Comma delimited format used in spreadsheet applications
http://www.bom.gov.au/fwo/IDN60801/IDN60801.95485.axf

JavaScript Object Notation format (JSON) in row-major order
http://www.bom.gov.au/fwo/IDN60801/IDN60801.95485.json